sensor_id;sensor_type;location;lat;lon;timestamp;P1;durP1;ratioP1;P2;durP2;ratioP2
62535;SDS011;63050;47.514;18.920;2023-03-03T00:01:00;19.30;;;8.90;;
62535;SDS011;63050;47.514;18.920;2023-03-03T00:06:02;16.20;;;8.90;;
62535;SDS011;63050;47.514;18.920;2023-03-03T00:11:04;16.90;;;8.60;;
62535;SDS011;63050;47.514;18.920;2023-03-03T00:16:15;15.90;;;9.10;;
62535;SDS011;63050;47.514;18.920;2023-03-03T00:26:35;13.90;;;8.60;;
62535;SDS011;63050;47.514;18.920;2023-03-03T00:31:37;17.00;;;7.90;;
62535;SDS011;63050;47.514;18.920;2023-03-03T00:36:38;10.80;;;6.00;;
62535;SDS011;63050;47.514;18.920;2023-03-03T00:41:40;13.70;;;7.40;;
62535;SDS011;63050;47.514;18.920;2023-03-03T00:46:42;11.00;;;7.50;;
62535;SDS011;63050;47.514;18.920;2023-03-03T00:51:43;15.20;;;7.40;;
62535;SDS011;63050;47.514;18.920;2023-03-03T00:56:44;13.00;;;7.50;;
62535;SDS011;63050;47.514;18.920;2023-03-03T01:01:45;16.50;;;6.70;;
62535;SDS011;63050;47.514;18.920;2023-03-03T01:06:46;12.50;;;6.30;;
62535;SDS011;63050;47.514;18.920;2023-03-03T01:11:49;10.10;;;5.80;;
62535;SDS011;63050;47.514;18.920;2023-03-03T01:16:50;12.10;;;6.60;;
62535;SDS011;63050;47.514;18.920;2023-03-03T01:21:51;13.90;;;6.20;;
62535;SDS011;63050;47.514;18.920;2023-03-03T01:26:52;11.80;;;5.80;;
62535;SDS011;63050;47.514;18.920;2023-03-03T01:31:53;11.40;;;6.90;;
62535;SDS011;63050;47.514;18.920;2023-03-03T01:36:55;13.30;;;6.00;;
62535;SDS011;63050;47.514;18.920;2023-03-03T01:41:56;11.40;;;6.10;;
62535;SDS011;63050;47.514;18.920;2023-03-03T01:47:07;15.00;;;7.90;;
62535;SDS011;63050;47.514;18.920;2023-03-03T01:52:37;11.40;;;5.20;;
62535;SDS011;63050;47.514;18.920;2023-03-03T01:57:47;9.60;;;5.40;;
62535;SDS011;63050;47.514;18.920;2023-03-03T02:02:52;11.40;;;5.80;;
62535;SDS011;63050;47.514;18.920;2023-03-03T02:07:54;12.90;;;5.90;;
62535;SDS011;63050;47.514;18.920;2023-03-03T02:12:55;11.20;;;5.70;;
62535;SDS011;63050;47.514;18.920;2023-03-03T02:18:02;13.10;;;5.70;;
62535;SDS011;63050;47.514;18.920;2023-03-03T02:23:10;10.00;;;5.90;;
62535;SDS011;63050;47.514;18.920;2023-03-03T02:28:16;11.70;;;5.20;;
62535;SDS011;63050;47.514;18.920;2023-03-03T02:33:17;10.50;;;6.00;;
62535;SDS011;63050;47.514;18.920;2023-03-03T02:49:03;8.10;;;4.40;;
62535;SDS011;63050;47.514;18.920;2023-03-03T02:54:06;7.70;;;4.40;;
62535;SDS011;63050;47.514;18.920;2023-03-03T02:59:09;8.40;;;4.80;;
62535;SDS011;63050;47.514;18.920;2023-03-03T03:04:16;8.30;;;5.30;;
62535;SDS011;63050;47.514;18.920;2023-03-03T03:09:22;10.30;;;4.90;;
62535;SDS011;63050;47.514;18.920;2023-03-03T03:14:25;8.30;;;4.50;;
62535;SDS011;63050;47.514;18.920;2023-03-03T03:19:26;9.20;;;4.70;;
62535;SDS011;63050;47.514;18.920;2023-03-03T03:24:28;8.50;;;5.20;;
62535;SDS011;63050;47.514;18.920;2023-03-03T03:29:33;7.90;;;4.90;;
62535;SDS011;63050;47.514;18.920;2023-03-03T03:34:35;8.40;;;4.50;;
62535;SDS011;63050;47.514;18.920;2023-03-03T03:39:37;6.90;;;4.30;;
62535;SDS011;63050;47.514;18.920;2023-03-03T03:44:38;8.60;;;4.30;;
62535;SDS011;63050;47.514;18.920;2023-03-03T03:49:40;7.60;;;5.20;;
62535;SDS011;63050;47.514;18.920;2023-03-03T03:54:41;8.40;;;4.50;;
62535;SDS011;63050;47.514;18.920;2023-03-03T03:59:42;10.20;;;5.80;;
62535;SDS011;63050;47.514;18.920;2023-03-03T04:04:44;12.00;;;5.50;;
62535;SDS011;63050;47.514;18.920;2023-03-03T04:09:46;9.00;;;5.40;;
62535;SDS011;63050;47.514;18.920;2023-03-03T04:14:47;11.30;;;5.80;;
62535;SDS011;63050;47.514;18.920;2023-03-03T04:19:51;18.20;;;6.70;;
62535;SDS011;63050;47.514;18.920;2023-03-03T04:24:52;9.80;;;5.80;;
62535;SDS011;63050;47.514;18.920;2023-03-03T04:29:53;17.80;;;8.80;;
62535;SDS011;63050;47.514;18.920;2023-03-03T04:34:55;11.70;;;7.10;;
62535;SDS011;63050;47.514;18.920;2023-03-03T04:39:56;15.70;;;7.00;;
62535;SDS011;63050;47.514;18.920;2023-03-03T04:44:57;13.00;;;6.80;;
62535;SDS011;63050;47.514;18.920;2023-03-03T04:49:58;16.50;;;8.00;;
62535;SDS011;63050;47.514;18.920;2023-03-03T04:55:01;19.10;;;7.30;;
62535;SDS011;63050;47.514;18.920;2023-03-03T05:00:02;17.90;;;9.60;;
62535;SDS011;63050;47.514;18.920;2023-03-03T05:05:06;20.20;;;9.90;;
62535;SDS011;63050;47.514;18.920;2023-03-03T05:10:09;23.70;;;10.90;;
62535;SDS011;63050;47.514;18.920;2023-03-03T05:15:10;21.70;;;11.80;;
62535;SDS011;63050;47.514;18.920;2023-03-03T05:20:12;17.70;;;10.80;;
62535;SDS011;63050;47.514;18.920;2023-03-03T05:25:13;20.70;;;10.80;;
62535;SDS011;63050;47.514;18.920;2023-03-03T05:30:14;16.10;;;10.10;;
62535;SDS011;63050;47.514;18.920;2023-03-03T05:35:15;20.80;;;9.80;;
62535;SDS011;63050;47.514;18.920;2023-03-03T05:40:16;13.20;;;7.30;;
62535;SDS011;63050;47.514;18.920;2023-03-03T05:45:17;11.10;;;6.90;;
62535;SDS011;63050;47.514;18.920;2023-03-03T05:50:21;9.90;;;5.40;;
62535;SDS011;63050;47.514;18.920;2023-03-03T05:55:23;10.20;;;6.00;;
62535;SDS011;63050;47.514;18.920;2023-03-03T06:00:24;13.10;;;5.90;;
62535;SDS011;63050;47.514;18.920;2023-03-03T06:05:25;12.70;;;7.00;;
62535;SDS011;63050;47.514;18.920;2023-03-03T06:10:26;15.60;;;6.80;;
62535;SDS011;63050;47.514;18.920;2023-03-03T06:15:28;12.80;;;7.00;;
62535;SDS011;63050;47.514;18.920;2023-03-03T06:20:29;15.90;;;8.20;;
62535;SDS011;63050;47.514;18.920;2023-03-03T06:25:31;10.80;;;7.30;;
62535;SDS011;63050;47.514;18.920;2023-03-03T06:30:35;21.10;;;6.70;;
62535;SDS011;63050;47.514;18.920;2023-03-03T06:35:36;17.40;;;6.40;;
62535;SDS011;63050;47.514;18.920;2023-03-03T06:40:37;14.10;;;5.90;;
62535;SDS011;63050;47.514;18.920;2023-03-03T06:45:38;12.10;;;6.70;;
62535;SDS011;63050;47.514;18.920;2023-03-03T06:50:39;17.90;;;6.90;;
62535;SDS011;63050;47.514;18.920;2023-03-03T06:55:40;21.30;;;7.40;;
62535;SDS011;63050;47.514;18.920;2023-03-03T07:00:45;15.30;;;6.30;;
62535;SDS011;63050;47.514;18.920;2023-03-03T07:05:53;12.40;;;7.20;;
62535;SDS011;63050;47.514;18.920;2023-03-03T07:10:55;13.00;;;7.50;;
62535;SDS011;63050;47.514;18.920;2023-03-03T07:15:56;12.00;;;6.70;;
62535;SDS011;63050;47.514;18.920;2023-03-03T07:21:04;12.40;;;6.80;;
62535;SDS011;63050;47.514;18.920;2023-03-03T07:26:29;13.30;;;7.10;;
62535;SDS011;63050;47.514;18.920;2023-03-03T07:31:36;13.00;;;7.30;;
62535;SDS011;63050;47.514;18.920;2023-03-03T07:36:39;13.30;;;7.20;;
62535;SDS011;63050;47.514;18.920;2023-03-03T07:41:40;14.60;;;8.40;;
62535;SDS011;63050;47.514;18.920;2023-03-03T07:46:43;18.70;;;10.80;;
62535;SDS011;63050;47.514;18.920;2023-03-03T07:51:45;36.30;;;22.00;;
62535;SDS011;63050;47.514;18.920;2023-03-03T07:56:46;30.90;;;18.80;;
62535;SDS011;63050;47.514;18.920;2023-03-03T08:01:50;26.40;;;14.90;;
62535;SDS011;63050;47.514;18.920;2023-03-03T08:06:55;21.00;;;14.10;;
62535;SDS011;63050;47.514;18.920;2023-03-03T08:17:13;21.90;;;13.30;;
62535;SDS011;63050;47.514;18.920;2023-03-03T08:22:37;20.80;;;12.90;;
62535;SDS011;63050;47.514;18.920;2023-03-03T08:27:38;19.20;;;11.00;;
62535;SDS011;63050;47.514;18.920;2023-03-03T08:32:38;18.10;;;11.70;;
62535;SDS011;63050;47.514;18.920;2023-03-03T08:37:39;30.80;;;13.60;;
62535;SDS011;63050;47.514;18.920;2023-03-03T08:42:40;18.20;;;11.30;;
62535;SDS011;63050;47.514;18.920;2023-03-03T08:47:41;16.60;;;11.00;;
62535;SDS011;63050;47.514;18.920;2023-03-03T08:52:44;17.90;;;11.80;;
62535;SDS011;63050;47.514;18.920;2023-03-03T08:57:45;15.50;;;10.60;;
62535;SDS011;63050;47.514;18.920;2023-03-03T09:02:47;24.80;;;12.70;;
62535;SDS011;63050;47.514;18.920;2023-03-03T09:07:49;16.20;;;10.80;;
62535;SDS011;63050;47.514;18.920;2023-03-03T09:12:53;33.60;;;11.40;;
62535;SDS011;63050;47.514;18.920;2023-03-03T09:17:59;19.20;;;11.70;;
62535;SDS011;63050;47.514;18.920;2023-03-03T09:28:30;18.50;;;11.20;;
62535;SDS011;63050;47.514;18.920;2023-03-03T09:33:44;15.90;;;9.50;;
62535;SDS011;63050;47.514;18.920;2023-03-03T09:38:49;15.90;;;9.40;;
62535;SDS011;63050;47.514;18.920;2023-03-03T09:44:10;15.40;;;9.60;;
62535;SDS011;63050;47.514;18.920;2023-03-03T10:21:23;15.30;;;8.70;;
62535;SDS011;63050;47.514;18.920;2023-03-03T10:32:06;13.20;;;7.70;;
62535;SDS011;63050;47.514;18.920;2023-03-03T11:09:01;12.30;;;8.70;;
62535;SDS011;63050;47.514;18.920;2023-03-03T11:14:09;15.30;;;9.00;;
62535;SDS011;63050;47.514;18.920;2023-03-03T11:36:26;9.30;;;7.10;;
62535;SDS011;63050;47.514;18.920;2023-03-03T11:41:20;11.30;;;7.10;;
62535;SDS011;63050;47.514;18.920;2023-03-03T11:46:35;12.80;;;8.50;;
62535;SDS011;63050;47.514;18.920;2023-03-03T11:52:42;13.40;;;8.20;;
62535;SDS011;63050;47.514;18.920;2023-03-03T11:57:31;10.20;;;7.40;;
62535;SDS011;63050;47.514;18.920;2023-03-03T12:29:04;11.40;;;7.80;;
62535;SDS011;63050;47.514;18.920;2023-03-03T13:01:18;11.70;;;8.20;;
62535;SDS011;63050;47.514;18.920;2023-03-03T13:05:59;11.20;;;7.50;;
62535;SDS011;63050;47.514;18.920;2023-03-03T13:27:12;9.90;;;8.00;;
62535;SDS011;63050;47.514;18.920;2023-03-03T13:32:16;13.40;;;9.50;;
62535;SDS011;63050;47.514;18.920;2023-03-03T13:37:25;13.30;;;9.50;;
62535;SDS011;63050;47.514;18.920;2023-03-03T13:42:39;12.20;;;8.80;;
62535;SDS011;63050;47.514;18.920;2023-03-03T14:14:08;12.40;;;9.80;;
62535;SDS011;63050;47.514;18.920;2023-03-03T14:19:27;14.80;;;11.30;;
62535;SDS011;63050;47.514;18.920;2023-03-03T14:24:32;17.10;;;11.90;;
62535;SDS011;63050;47.514;18.920;2023-03-03T14:29:58;15.70;;;10.30;;
62535;SDS011;63050;47.514;18.920;2023-03-03T14:35:00;18.20;;;11.90;;
62535;SDS011;63050;47.514;18.920;2023-03-03T14:40:09;15.00;;;11.40;;
62535;SDS011;63050;47.514;18.920;2023-03-03T14:50:31;16.20;;;11.80;;
62535;SDS011;63050;47.514;18.920;2023-03-03T14:55:36;16.20;;;11.90;;
62535;SDS011;63050;47.514;18.920;2023-03-03T15:00:39;22.90;;;12.20;;
62535;SDS011;63050;47.514;18.920;2023-03-03T15:05:46;16.40;;;12.20;;
62535;SDS011;63050;47.514;18.920;2023-03-03T15:10:51;15.60;;;12.20;;
62535;SDS011;63050;47.514;18.920;2023-03-03T15:26:17;19.20;;;13.60;;
62535;SDS011;63050;47.514;18.920;2023-03-03T15:31:27;18.00;;;12.10;;
62535;SDS011;63050;47.514;18.920;2023-03-03T15:59:07;21.60;;;14.80;;
62535;SDS011;63050;47.514;18.920;2023-03-03T16:04:15;20.90;;;15.10;;
62535;SDS011;63050;47.514;18.920;2023-03-03T16:36:12;21.40;;;15.80;;
62535;SDS011;63050;47.514;18.920;2023-03-03T16:41:18;24.80;;;17.80;;
62535;SDS011;63050;47.514;18.920;2023-03-03T16:46:34;23.00;;;17.20;;
62535;SDS011;63050;47.514;18.920;2023-03-03T16:51:55;23.20;;;17.30;;
62535;SDS011;63050;47.514;18.920;2023-03-03T17:18:04;44.50;;;18.90;;
62535;SDS011;63050;47.514;18.920;2023-03-03T17:28:53;33.20;;;16.30;;
62535;SDS011;63050;47.514;18.920;2023-03-03T17:39:49;25.20;;;15.10;;
62535;SDS011;63050;47.514;18.920;2023-03-03T17:45:08;24.20;;;15.20;;
62535;SDS011;63050;47.514;18.920;2023-03-03T18:01:06;30.80;;;17.20;;
62535;SDS011;63050;47.514;18.920;2023-03-03T18:17:10;20.60;;;13.50;;
62535;SDS011;63050;47.514;18.920;2023-03-03T18:22:24;27.90;;;16.00;;
62535;SDS011;63050;47.514;18.920;2023-03-03T18:27:35;32.80;;;17.00;;
62535;SDS011;63050;47.514;18.920;2023-03-03T18:37:56;25.70;;;16.60;;
62535;SDS011;63050;47.514;18.920;2023-03-03T19:04:36;29.20;;;17.10;;
62535;SDS011;63050;47.514;18.920;2023-03-03T19:09:50;32.90;;;18.00;;
62535;SDS011;63050;47.514;18.920;2023-03-03T19:14:56;33.60;;;19.10;;
62535;SDS011;63050;47.514;18.920;2023-03-03T19:25:23;29.60;;;17.40;;
62535;SDS011;63050;47.514;18.920;2023-03-03T19:36:13;27.90;;;16.30;;
62535;SDS011;63050;47.514;18.920;2023-03-03T19:57:14;30.60;;;17.00;;
62535;SDS011;63050;47.514;18.920;2023-03-03T20:02:30;32.60;;;16.40;;
62535;SDS011;63050;47.514;18.920;2023-03-03T20:19:33;27.50;;;15.40;;
62535;SDS011;63050;47.514;18.920;2023-03-03T20:24:29;30.30;;;16.90;;
62535;SDS011;63050;47.514;18.920;2023-03-03T20:40:02;36.40;;;19.40;;
62535;SDS011;63050;47.514;18.920;2023-03-03T21:01:21;38.60;;;18.10;;
62535;SDS011;63050;47.514;18.920;2023-03-03T21:06:45;29.10;;;16.50;;
62535;SDS011;63050;47.514;18.920;2023-03-03T21:11:47;31.40;;;17.00;;
62535;SDS011;63050;47.514;18.920;2023-03-03T21:16:49;35.00;;;16.50;;
62535;SDS011;63050;47.514;18.920;2023-03-03T21:21:52;27.30;;;14.50;;
62535;SDS011;63050;47.514;18.920;2023-03-03T21:26:58;26.00;;;13.40;;
62535;SDS011;63050;47.514;18.920;2023-03-03T21:32:03;26.10;;;15.00;;
62535;SDS011;63050;47.514;18.920;2023-03-03T21:37:07;26.60;;;12.90;;
62535;SDS011;63050;47.514;18.920;2023-03-03T21:42:11;25.80;;;13.50;;
62535;SDS011;63050;47.514;18.920;2023-03-03T21:47:17;26.70;;;15.00;;
62535;SDS011;63050;47.514;18.920;2023-03-03T21:52:24;28.90;;;13.50;;
62535;SDS011;63050;47.514;18.920;2023-03-03T21:57:25;26.00;;;12.10;;
62535;SDS011;63050;47.514;18.920;2023-03-03T22:02:27;22.80;;;11.70;;
62535;SDS011;63050;47.514;18.920;2023-03-03T22:07:28;25.40;;;11.90;;
62535;SDS011;63050;47.514;18.920;2023-03-03T22:12:29;21.80;;;11.90;;
62535;SDS011;63050;47.514;18.920;2023-03-03T22:17:30;30.90;;;13.40;;
62535;SDS011;63050;47.514;18.920;2023-03-03T22:22:30;24.80;;;11.70;;
62535;SDS011;63050;47.514;18.920;2023-03-03T22:27:31;27.60;;;11.60;;
62535;SDS011;63050;47.514;18.920;2023-03-03T22:32:32;26.00;;;12.40;;
62535;SDS011;63050;47.514;18.920;2023-03-03T22:37:33;27.10;;;11.30;;
62535;SDS011;63050;47.514;18.920;2023-03-03T22:42:34;19.70;;;10.30;;
62535;SDS011;63050;47.514;18.920;2023-03-03T22:47:35;24.90;;;11.70;;
62535;SDS011;63050;47.514;18.920;2023-03-03T22:52:36;24.90;;;11.20;;
62535;SDS011;63050;47.514;18.920;2023-03-03T22:57:37;25.90;;;11.60;;
62535;SDS011;63050;47.514;18.920;2023-03-03T23:02:38;24.30;;;11.30;;
62535;SDS011;63050;47.514;18.920;2023-03-03T23:07:40;19.30;;;9.90;;
62535;SDS011;63050;47.514;18.920;2023-03-03T23:12:41;22.30;;;10.50;;
62535;SDS011;63050;47.514;18.920;2023-03-03T23:17:42;25.20;;;11.60;;
62535;SDS011;63050;47.514;18.920;2023-03-03T23:22:44;23.40;;;10.60;;
62535;SDS011;63050;47.514;18.920;2023-03-03T23:27:45;21.30;;;9.80;;
62535;SDS011;63050;47.514;18.920;2023-03-03T23:32:47;23.40;;;10.50;;
62535;SDS011;63050;47.514;18.920;2023-03-03T23:37:48;23.60;;;10.70;;
62535;SDS011;63050;47.514;18.920;2023-03-03T23:42:49;18.00;;;9.10;;
62535;SDS011;63050;47.514;18.920;2023-03-03T23:47:50;23.70;;;10.60;;
62535;SDS011;63050;47.514;18.920;2023-03-03T23:52:51;19.00;;;9.20;;
62535;SDS011;63050;47.514;18.920;2023-03-03T23:57:51;18.80;;;9.00;;
